Time;durP1;ratioP1;P1;durP2;ratioP2;P2;SDS_P1;SDS_P2;PMS_P1;PMS_P2;Temp;Humidity;BMP_temperature;BMP_pressure;BME280_temperature;BME280_humidity;BME280_pressure;Samples;Min_cycle;Max_cycle;Signal;HPM_P1;HPM_P2
2022/01/21 00:01:21;;;;;;;11.55;1.65;;;1.70;88.30;;;;;;5011260;28;20116;-82
2022/01/21 00:03:46;;;;;;;7.22;1.98;;;1.70;88.30;;;;;;5048530;28;20039;-82
2022/01/21 00:06:12;;;;;;;4.00;1.63;;;1.70;88.30;;;;;;5028745;28;20053;-85
2022/01/21 00:08:39;;;;;;;7.20;1.70;;;1.70;88.30;;;;;;5041354;28;20079;-84
2022/01/21 00:11:04;;;;;;;5.22;1.88;;;1.80;88.50;;;;;;5006797;28;20080;-82
2022/01/21 00:13:36;;;;;;;5.18;2.58;;;1.70;88.30;;;;;;5000120;28;20445;-84
2022/01/21 00:16:06;;;;;;;6.38;1.70;;;1.80;88.40;;;;;;5028173;28;20079;-83
2022/01/21 00:18:32;;;;;;;4.93;1.83;;;1.80;88.40;;;;;;5035032;28;20040;-81
2022/01/21 00:31:55;;;;;;;4.82;1.60;;;1.70;88.40;;;;;;5027261;28;20111;-83
2022/01/21 00:34:21;;;;;;;9.73;2.00;;;1.70;88.30;;;;;;5013406;28;20091;-82
2022/01/21 00:36:46;;;;;;;2.75;1.30;;;1.70;88.40;;;;;;5036431;28;20048;-82
2022/01/21 00:39:12;;;;;;;3.78;1.67;;;1.70;88.40;;;;;;5002454;28;20048;-82
2022/01/21 00:41:46;;;;;;;6.10;1.50;;;1.70;88.40;;;;;;4998761;28;20560;-82
2022/01/21 00:44:11;;;;;;;6.93;1.95;;;1.70;88.50;;;;;;5034295;28;20047;-82
2022/01/21 00:46:37;;;;;;;6.13;1.83;;;1.70;88.60;;;;;;4991306;28;20085;-82
2022/01/21 00:49:03;;;;;;;4.97;1.92;;;1.70;88.50;;;;;;5037930;28;20078;-82
2022/01/21 00:51:29;;;;;;;5.47;1.83;;;1.70;88.50;;;;;;5029914;28;20104;-82
2022/01/21 00:53:55;;;;;;;10.45;1.70;;;1.70;88.60;;;;;;5030269;28;20076;-82
2022/01/21 00:56:20;;;;;;;3.42;1.55;;;1.70;88.60;;;;;;5064130;28;20423;-82
2022/01/21 00:58:46;;;;;;;8.73;1.95;;;1.70;88.60;;;;;;5006090;28;20810;-82
2022/01/21 01:01:11;;;;;;;3.08;2.00;;;1.70;88.50;;;;;;5067183;28;20036;-82
2022/01/21 01:03:37;;;;;;;9.20;1.80;;;1.70;88.50;;;;;;5041606;28;20041;-82
2022/01/21 01:06:02;;;;;;;4.85;1.38;;;1.70;88.50;;;;;;5042487;28;20089;-82
2022/01/21 01:08:28;;;;;;;5.25;1.55;;;1.70;88.50;;;;;;5031326;28;20044;-82
2022/01/21 01:11:16;;;;;;;7.00;1.83;;;1.70;88.50;;;;;;5020403;28;20037;-82
2022/01/21 01:21:45;;;;;;;4.60;1.80;;;1.80;88.70;;;;;;5032942;28;20044;-82
2022/01/21 01:29:22;;;;;;;7.95;2.05;;;1.80;88.70;;;;;;5047045;28;20104;-82
2022/01/21 01:31:48;;;;;;;8.10;1.73;;;1.80;88.60;;;;;;5025341;28;20044;-82
2022/01/21 01:34:14;;;;;;;6.82;1.70;;;1.80;88.60;;;;;;5003133;28;20029;-82
2022/01/21 01:36:43;;;;;;;5.72;1.80;;;1.80;88.50;;;;;;5024129;28;20037;-82
2022/01/21 01:41:42;;;;;;;6.93;1.55;;;1.70;88.60;;;;;;5034850;28;20112;-82
2022/01/21 01:49:37;;;;;;;5.55;1.27;;;1.70;88.60;;;;;;5025479;28;20108;-82
2022/01/21 01:52:08;;;;;;;3.15;1.23;;;1.70;88.50;;;;;;5028871;28;20041;-82
2022/01/21 01:54:35;;;;;;;6.10;1.55;;;1.70;88.60;;;;;;5029793;28;20089;-82
2022/01/21 01:57:01;;;;;;;5.35;1.65;;;1.70;88.60;;;;;;5031986;28;20057;-82
2022/01/21 01:59:27;;;;;;;5.85;1.63;;;1.70;88.60;;;;;;5018721;28;20090;-82
2022/01/21 02:01:55;;;;;;;4.05;1.60;;;1.70;88.60;;;;;;5029227;28;20059;-82
2022/01/21 02:04:21;;;;;;;5.25;1.55;;;1.70;88.60;;;;;;5031447;28;20041;-82
2022/01/21 02:06:48;;;;;;;6.38;1.40;;;1.70;88.60;;;;;;4997856;28;20055;-82
2022/01/21 02:09:13;;;;;;;2.88;1.45;;;1.70;88.60;;;;;;5043832;28;20402;-82
2022/01/21 02:11:39;;;;;;;7.50;1.48;;;1.70;88.60;;;;;;5015355;28;20514;-82
2022/01/21 02:14:08;;;;;;;4.72;1.30;;;1.70;88.70;;;;;;5005233;28;20030;-82
2022/01/21 02:16:42;;;;;;;3.58;1.60;;;1.70;88.70;;;;;;5031155;28;20036;-82
2022/01/21 02:21:51;;;;;;;3.88;1.60;;;1.60;88.70;;;;;;5017611;28;20044;-82
2022/01/21 02:24:21;;;;;;;3.67;1.40;;;1.60;88.70;;;;;;5015200;28;20037;-82
2022/01/21 02:26:49;;;;;;;6.25;1.70;;;1.60;88.80;;;;;;5032770;28;20490;-81
2022/01/21 02:29:25;;;;;;;4.07;1.65;;;1.60;88.80;;;;;;5026029;28;20036;-81
2022/01/21 02:31:51;;;;;;;3.40;1.30;;;1.50;88.70;;;;;;5006563;28;20750;-82
2022/01/21 02:34:16;;;;;;;6.97;1.30;;;1.50;88.70;;;;;;5039632;28;20514;-82
2022/01/21 02:36:42;;;;;;;2.78;1.08;;;1.50;88.70;;;;;;5049140;28;20052;-82
2022/01/21 02:39:08;;;;;;;3.45;1.23;;;1.40;88.80;;;;;;4985174;28;20041;-82
2022/01/21 02:41:33;;;;;;;3.92;1.30;;;1.40;88.80;;;;;;5013648;28;20029;-81
2022/01/21 02:43:59;;;;;;;5.00;1.30;;;1.40;88.80;;;;;;4992135;28;21644;-82
2022/01/21 02:46:26;;;;;;;4.05;1.40;;;1.30;88.70;;;;;;5009361;28;20072;-82
2022/01/21 02:48:51;;;;;;;10.68;1.90;;;1.30;88.80;;;;;;5024344;28;20491;-81
2022/01/21 02:51:17;;;;;;;5.82;1.50;;;1.30;88.80;;;;;;5047783;28;20595;-82
2022/01/21 02:56:12;;;;;;;3.45;1.58;;;1.20;88.80;;;;;;5021828;28;20082;-82
2022/01/21 02:58:38;;;;;;;6.50;1.30;;;1.20;88.90;;;;;;5025082;28;20033;-82
2022/01/21 03:01:04;;;;;;;8.82;1.52;;;1.20;88.90;;;;;;5019515;28;20029;-81
2022/01/21 03:03:30;;;;;;;8.77;1.38;;;1.20;89.00;;;;;;5010191;28;20033;-82
2022/01/21 03:05:55;;;;;;;9.45;1.40;;;1.20;89.10;;;;;;5016449;28;20043;-81
2022/01/21 03:08:21;;;;;;;3.67;1.30;;;1.10;88.90;;;;;;5020057;28;20116;-81
2022/01/21 03:10:46;;;;;;;2.70;1.33;;;1.10;88.90;;;;;;5013370;28;20214;-82
2022/01/21 03:13:12;;;;;;;7.28;1.30;;;1.10;89.00;;;;;;5012127;28;20151;-81
2022/01/21 03:15:37;;;;;;;3.67;1.35;;;1.10;89.00;;;;;;5005397;28;20584;-81
2022/01/21 03:18:03;;;;;;;4.45;1.30;;;1.00;88.90;;;;;;5045784;28;20040;-81
2022/01/21 03:20:28;;;;;;;6.05;1.48;;;1.00;89.00;;;;;;4994626;28;20044;-81
2022/01/21 03:22:54;;;;;;;5.40;0.98;;;1.00;89.10;;;;;;5019265;28;20048;-82
2022/01/21 03:25:19;;;;;;;7.38;1.45;;;0.90;89.00;;;;;;5008715;28;20037;-81
2022/01/21 03:27:45;;;;;;;7.90;1.83;;;0.90;89.00;;;;;;5032555;28;20029;-81
2022/01/21 03:30:11;;;;;;;4.50;1.23;;;0.90;89.10;;;;;;5023305;28;20036;-81
2022/01/21 03:32:38;;;;;;;11.05;1.77;;;0.90;89.10;;;;;;4982992;28;20034;-81
2022/01/21 03:35:04;;;;;;;9.25;1.50;;;0.90;89.10;;;;;;4994230;28;20129;-81
2022/01/21 03:37:29;;;;;;;8.75;1.90;;;0.90;89.20;;;;;;5025522;28;20116;-81
2022/01/21 03:39:55;;;;;;;3.03;1.52;;;0.90;89.20;;;;;;5011495;28;20040;-81
2022/01/21 03:42:20;;;;;;;10.25;1.63;;;0.90;89.20;;;;;;5002506;28;20061;-81
2022/01/21 03:44:46;;;;;;;3.15;1.30;;;0.80;89.20;;;;;;5026018;28;20045;-81
2022/01/21 03:47:11;;;;;;;2.50;1.17;;;0.80;89.30;;;;;;5010748;28;20033;-81
2022/01/21 03:49:40;;;;;;;6.28;1.52;;;0.80;89.40;;;;;;4992041;28;20038;-81
2022/01/21 03:52:06;;;;;;;5.95;1.35;;;0.80;89.30;;;;;;5028879;28;20059;-81
2022/01/21 03:54:32;;;;;;;4.97;1.70;;;0.90;89.40;;;;;;5015584;28;20059;-81
2022/01/21 03:56:59;;;;;;;4.82;1.75;;;0.90;89.40;;;;;;5024922;28;20029;-81
2022/01/21 03:59:25;;;;;;;7.93;1.60;;;0.90;89.40;;;;;;4999071;28;20029;-81
2022/01/21 04:01:50;;;;;;;6.93;1.75;;;0.90;89.50;;;;;;4998774;28;20092;-81
2022/01/21 04:04:16;;;;;;;7.05;1.65;;;0.90;89.50;;;;;;5022685;28;20947;-79
2022/01/21 04:06:41;;;;;;;5.13;1.70;;;0.90;89.60;;;;;;5028974;28;20048;-79
2022/01/21 04:09:07;;;;;;;8.15;1.52;;;1.00;89.70;;;;;;5001995;28;20047;-82
2022/01/21 04:11:32;;;;;;;3.65;1.50;;;0.90;89.60;;;;;;5005799;28;20044;-82
2022/01/21 04:13:58;;;;;;;5.63;1.50;;;0.90;89.60;;;;;;5025597;28;20040;-82
2022/01/21 04:16:24;;;;;;;4.25;1.30;;;1.00;89.70;;;;;;4998533;28;20041;-82
2022/01/21 04:18:49;;;;;;;6.05;1.58;;;1.00;89.70;;;;;;5020649;28;20045;-82
2022/01/21 04:21:15;;;;;;;5.90;1.60;;;0.90;89.60;;;;;;5011402;28;20032;-82
2022/01/21 04:23:40;;;;;;;3.58;1.83;;;0.90;89.60;;;;;;5020038;28;20070;-82
2022/01/21 04:26:06;;;;;;;9.70;2.80;;;1.00;89.70;;;;;;5029190;28;20037;-82
2022/01/21 04:28:31;;;;;;;9.75;2.13;;;0.90;89.60;;;;;;5015623;28;20511;-82
2022/01/21 04:30:57;;;;;;;7.78;1.80;;;0.90;89.60;;;;;;4981924;28;20034;-82
2022/01/21 04:33:23;;;;;;;7.38;1.73;;;1.00;89.70;;;;;;5027092;28;20037;-81
2022/01/21 04:35:49;;;;;;;3.78;1.50;;;0.90;89.70;;;;;;5021881;28;20064;-82
2022/01/21 04:38:17;;;;;;;6.53;1.63;;;0.90;89.70;;;;;;5043910;28;20040;-82
2022/01/21 04:40:57;;;;;;;6.45;1.70;;;1.00;89.80;;;;;;5009715;28;20032;-82
2022/01/21 04:48:51;;;;;;;6.35;2.30;;;0.90;89.70;;;;;;5044209;28;20044;-82
2022/01/21 04:51:26;;;;;;;8.82;1.83;;;0.90;89.80;;;;;;5013588;28;20033;-82
2022/01/21 04:53:51;;;;;;;14.88;6.88;;;0.90;89.80;;;;;;5034885;28;20025;-82
2022/01/21 04:56:17;;;;;;;49.45;21.38;;;0.90;89.70;;;;;;5013902;28;20035;-82
2022/01/21 04:58:43;;;;;;;14.88;6.22;;;0.90;89.70;;;;;;5020071;28;20033;-82
2022/01/21 05:01:09;;;;;;;11.10;4.38;;;0.90;89.80;;;;;;5011287;28;20033;-82
2022/01/21 05:03:34;;;;;;;12.23;3.35;;;0.80;89.70;;;;;;5007232;28;20033;-82
2022/01/21 05:06:01;;;;;;;4.75;2.00;;;0.80;89.80;;;;;;5016963;28;20396;-82
2022/01/21 05:08:33;;;;;;;4.40;2.00;;;0.80;89.80;;;;;;5002958;28;20053;-82
2022/01/21 05:11:01;;;;;;;4.78;1.90;;;0.80;89.80;;;;;;5006570;28;20036;-82
2022/01/21 05:13:35;;;;;;;10.43;2.47;;;0.80;89.80;;;;;;5034076;28;20025;-83
2022/01/21 05:16:07;;;;;;;9.82;2.22;;;0.70;89.80;;;;;;4970682;28;20519;-82
2022/01/21 05:18:33;;;;;;;7.35;2.05;;;0.70;89.90;;;;;;5022770;28;20117;-82
2022/01/21 05:20:59;;;;;;;4.32;3.05;;;0.70;89.90;;;;;;5050036;28;20141;-82
2022/01/21 05:23:25;;;;;;;9.68;2.10;;;0.70;89.90;;;;;;5004793;28;20512;-82
2022/01/21 05:25:50;;;;;;;6.72;2.40;;;0.60;89.90;;;;;;5046155;28;20029;-82
2022/01/21 05:28:16;;;;;;;4.90;1.52;;;0.60;89.90;;;;;;5010032;28;20577;-83
2022/01/21 05:30:41;;;;;;;4.20;1.67;;;0.60;90.00;;;;;;5019113;28;20044;-82
2022/01/21 05:33:07;;;;;;;8.80;1.95;;;0.60;90.00;;;;;;5001097;28;20676;-82
2022/01/21 05:35:32;;;;;;;7.75;2.03;;;0.60;90.00;;;;;;5047222;28;20037;-82
2022/01/21 05:37:58;;;;;;;4.90;1.65;;;0.60;90.30;;;;;;5019082;28;20120;-82
2022/01/21 05:40:24;;;;;;;4.05;1.80;;;0.50;90.00;;;;;;5025108;28;20115;-80
2022/01/21 05:42:50;;;;;;;11.20;4.55;;;0.50;90.00;;;;;;5043613;28;20412;-80
2022/01/21 05:48:00;;;;;;;10.75;3.80;;;0.50;90.00;;;;;;5016852;28;20036;-80
2022/01/21 05:50:25;;;;;;;13.75;4.22;;;0.50;90.10;;;;;;5026049;28;20032;-80
2022/01/21 05:52:51;;;;;;;16.52;5.68;;;0.50;90.10;;;;;;5016295;28;20029;-83
2022/01/21 05:55:17;;;;;;;19.65;7.45;;;0.50;90.10;;;;;;5010880;28;20075;-82
2022/01/21 05:57:43;;;;;;;16.45;6.03;;;0.50;90.20;;;;;;5002129;28;20041;-79
2022/01/21 06:00:09;;;;;;;19.52;5.43;;;0.50;90.20;;;;;;5027786;28;20037;-83
2022/01/21 06:02:35;;;;;;;8.32;4.40;;;0.50;90.20;;;;;;5032339;28;20028;-80
2022/01/21 06:05:01;;;;;;;11.65;3.70;;;0.50;90.20;;;;;;5031216;28;20033;-82
2022/01/21 06:07:26;;;;;;;9.02;3.60;;;0.50;90.20;;;;;;5001184;28;20660;-82
2022/01/21 06:09:52;;;;;;;10.48;4.15;;;0.50;90.20;;;;;;5026351;28;20037;-82
2022/01/21 06:12:17;;;;;;;7.90;2.30;;;0.50;90.20;;;;;;4996572;28;20057;-82
2022/01/21 06:14:43;;;;;;;8.10;2.33;;;0.50;90.20;;;;;;5028261;28;20021;-82
2022/01/21 06:17:10;;;;;;;10.60;3.35;;;0.50;90.30;;;;;;5011310;28;20037;-81
2022/01/21 06:19:36;;;;;;;6.82;2.80;;;0.50;90.30;;;;;;5033474;28;20037;-81
2022/01/21 06:22:01;;;;;;;7.88;2.55;;;0.50;90.30;;;;;;5039029;28;20067;-81
2022/01/21 06:24:27;;;;;;;6.78;2.70;;;0.60;90.30;;;;;;5000334;28;20108;-81
2022/01/21 06:26:58;;;;;;;7.60;2.80;;;0.50;90.30;;;;;;5030097;28;20047;-82
2022/01/21 06:29:24;;;;;;;10.40;2.88;;;0.60;90.40;;;;;;5021089;28;20584;-81
2022/01/21 06:31:49;;;;;;;3.80;2.03;;;0.60;90.30;;;;;;5003578;28;20060;-82
2022/01/21 06:34:15;;;;;;;10.27;3.13;;;0.60;90.40;;;;;;5010427;28;20100;-82
2022/01/21 06:36:40;;;;;;;9.73;3.58;;;0.60;90.40;;;;;;5027754;28;20048;-81
2022/01/21 06:39:06;;;;;;;13.25;3.88;;;0.60;90.40;;;;;;4995883;28;20033;-82
2022/01/21 06:41:33;;;;;;;13.38;3.28;;;0.60;90.40;;;;;;5030603;28;20108;-81
2022/01/21 06:43:58;;;;;;;7.90;2.90;;;0.60;90.40;;;;;;4992647;28;20120;-82
2022/01/21 06:46:24;;;;;;;9.02;3.35;;;0.60;90.40;;;;;;5011022;28;20090;-81
2022/01/21 06:48:49;;;;;;;8.68;3.40;;;0.60;90.40;;;;;;5048420;28;20416;-81
2022/01/21 06:51:15;;;;;;;7.93;3.88;;;0.60;90.40;;;;;;4988541;28;20752;-81
2022/01/21 06:53:40;;;;;;;5.88;2.95;;;0.60;90.40;;;;;;5027488;28;20495;-81
2022/01/21 06:56:06;;;;;;;6.22;2.72;;;0.60;90.40;;;;;;5049918;28;20039;-82
2022/01/21 06:58:31;;;;;;;8.15;2.55;;;0.60;90.40;;;;;;5018789;28;20047;-82
2022/01/21 07:00:57;;;;;;;7.30;2.65;;;0.60;90.60;;;;;;4972178;28;20377;-82
2022/01/21 07:03:24;;;;;;;10.23;3.60;;;0.60;90.50;;;;;;5023819;28;20140;-81
2022/01/21 07:05:50;;;;;;;8.77;2.92;;;0.60;90.50;;;;;;5051750;28;20044;-81
2022/01/21 07:08:16;;;;;;;8.77;2.90;;;0.60;90.50;;;;;;5016836;28;20021;-81
2022/01/21 07:10:41;;;;;;;31.33;11.95;;;0.60;90.50;;;;;;5017083;28;20064;-81
2022/01/21 07:13:07;;;;;;;13.68;4.60;;;0.60;90.50;;;;;;4985748;28;20072;-82
2022/01/21 07:15:33;;;;;;;11.65;4.55;;;0.70;90.50;;;;;;5025488;28;20490;-81
2022/01/21 07:17:58;;;;;;;17.55;6.50;;;0.70;90.60;;;;;;5001962;28;20140;-82
2022/01/21 07:20:24;;;;;;;17.63;7.03;;;0.70;90.60;;;;;;4988945;28;20025;-82
2022/01/21 07:22:49;;;;;;;6.28;3.70;;;0.70;90.60;;;;;;5028678;28;20040;-82
2022/01/21 07:25:15;;;;;;;7.93;3.22;;;0.70;90.60;;;;;;5033443;28;20036;-81
2022/01/21 07:27:41;;;;;;;9.18;3.13;;;0.80;90.60;;;;;;5019301;28;20083;-81
2022/01/21 07:30:08;;;;;;;13.27;5.13;;;0.70;90.60;;;;;;4990936;28;20041;-81
2022/01/21 07:32:33;;;;;;;21.58;5.60;;;0.80;90.60;;;;;;4998380;28;20053;-81
2022/01/21 07:34:59;;;;;;;8.07;3.35;;;0.80;90.60;;;;;;5040236;28;20079;-81
2022/01/21 07:37:24;;;;;;;11.02;3.03;;;0.80;90.60;;;;;;5026535;28;20124;-81
2022/01/21 07:39:50;;;;;;;12.15;3.95;;;0.80;90.60;;;;;;5017811;28;20116;-82
2022/01/21 07:42:15;;;;;;;13.18;5.85;;;0.80;90.60;;;;;;5029903;28;20036;-81
2022/01/21 07:44:41;;;;;;;13.05;5.65;;;0.80;90.60;;;;;;5024330;28;20074;-81
2022/01/21 07:47:06;;;;;;;15.95;5.70;;;0.90;90.60;;;;;;5008083;28;20048;-81
2022/01/21 07:49:32;;;;;;;14.85;6.32;;;0.90;90.60;;;;;;5035188;28;20037;-82
2022/01/21 07:51:58;;;;;;;9.35;4.80;;;0.90;90.60;;;;;;5003949;28;20131;-82
2022/01/21 07:54:23;;;;;;;9.75;4.50;;;0.90;90.60;;;;;;5001856;28;20029;-81
2022/01/21 07:56:49;;;;;;;9.30;4.72;;;0.90;90.60;;;;;;4995999;28;20033;-81
2022/01/21 07:59:14;;;;;;;14.00;5.70;;;1.00;90.60;;;;;;5019125;28;20682;-81
2022/01/21 08:01:40;;;;;;;18.02;4.25;;;1.00;90.60;;;;;;5014048;28;20037;-82
2022/01/21 08:04:06;;;;;;;12.60;4.55;;;1.00;90.60;;;;;;5048924;28;20440;-81
2022/01/21 08:06:32;;;;;;;12.75;5.03;;;1.10;90.70;;;;;;5026446;28;20048;-81
2022/01/21 08:08:57;;;;;;;15.40;6.13;;;1.10;90.60;;;;;;5028977;28;20060;-81
2022/01/21 08:11:23;;;;;;;10.32;4.70;;;1.10;90.60;;;;;;5013484;28;20037;-81
2022/01/21 08:13:49;;;;;;;10.60;4.05;;;1.10;90.60;;;;;;5022475;28;20115;-81
2022/01/21 08:16:15;;;;;;;8.45;3.92;;;1.20;90.60;;;;;;5002228;28;20037;-81
2022/01/21 08:18:40;;;;;;;9.27;3.92;;;1.20;90.60;;;;;;5026936;28;20041;-81
2022/01/21 08:21:06;;;;;;;9.00;3.72;;;1.20;90.60;;;;;;5008959;28;20029;-81
2022/01/21 08:23:31;;;;;;;8.98;4.07;;;1.20;90.60;;;;;;5006743;28;20045;-81
2022/01/21 08:25:57;;;;;;;7.47;3.63;;;1.20;90.60;;;;;;5029401;28;20039;-81
2022/01/21 08:28:22;;;;;;;11.25;3.92;;;1.30;90.60;;;;;;5013458;28;20123;-81
2022/01/21 08:30:48;;;;;;;10.32;3.55;;;1.30;90.50;;;;;;5004278;28;20110;-81
2022/01/21 08:33:13;;;;;;;20.50;5.20;;;1.30;90.50;;;;;;5007263;28;20056;-81
2022/01/21 08:35:39;;;;;;;13.43;4.10;;;1.40;90.90;;;;;;5001390;28;20803;-81
2022/01/21 08:38:05;;;;;;;17.77;7.10;;;1.40;90.60;;;;;;5036905;28;20134;-81
2022/01/21 08:40:30;;;;;;;47.42;15.35;;;1.40;90.50;;;;;;5033077;28;20025;-81
2022/01/21 08:42:56;;;;;;;20.73;6.68;;;1.50;90.50;;;;;;5011117;28;20025;-81
2022/01/21 08:45:22;;;;;;;16.27;5.70;;;1.50;90.50;;;;;;4996386;28;20040;-81
2022/01/21 08:47:47;;;;;;;34.25;9.93;;;1.50;90.50;;;;;;5038118;28;20132;-79
2022/01/21 08:50:15;;;;;;;37.72;12.15;;;1.50;90.50;;;;;;5015114;28;20038;-80
2022/01/21 08:52:41;;;;;;;22.00;7.43;;;1.50;90.50;;;;;;4995121;28;20036;-79
2022/01/21 08:55:11;;;;;;;19.52;5.28;;;1.60;90.50;;;;;;5000232;28;20226;-80
2022/01/21 08:57:39;;;;;;;26.77;10.23;;;1.60;90.50;;;;;;5000646;28;20561;-79
2022/01/21 09:00:09;;;;;;;31.52;10.38;;;1.70;90.50;;;;;;5011269;28;20029;-80
2022/01/21 09:02:34;;;;;;;18.98;6.40;;;1.70;90.50;;;;;;4998641;28;20025;-80
2022/01/21 09:05:00;;;;;;;20.75;7.75;;;1.70;90.40;;;;;;5016898;28;20661;-80
2022/01/21 09:07:25;;;;;;;14.63;4.70;;;1.80;90.40;;;;;;5029185;28;20028;-80
2022/01/21 09:09:51;;;;;;;12.10;4.80;;;1.80;90.40;;;;;;5018341;28;20021;-80
2022/01/21 09:12:17;;;;;;;11.52;5.00;;;1.80;90.40;;;;;;5036772;28;20041;-80
2022/01/21 09:14:42;;;;;;;14.32;5.43;;;1.90;90.40;;;;;;5040876;28;20461;-80
2022/01/21 09:17:08;;;;;;;11.98;4.40;;;1.90;90.30;;;;;;5056050;28;20677;-80
2022/01/21 09:19:33;;;;;;;8.07;3.47;;;1.90;90.30;;;;;;5047930;28;20597;-80
2022/01/21 09:22:02;;;;;;;12.25;4.68;;;1.90;90.30;;;;;;5022180;28;20025;-80
2022/01/21 09:24:32;;;;;;;10.00;3.95;;;2.00;90.30;;;;;;4999885;28;20049;-79
2022/01/21 09:27:01;;;;;;;11.18;3.55;;;2.00;90.30;;;;;;5035650;28;20045;-79
2022/01/21 09:29:27;;;;;;;9.10;4.65;;;2.00;90.30;;;;;;5016013;28;20037;-80
2022/01/21 09:31:53;;;;;;;9.77;4.88;;;2.00;90.30;;;;;;5046083;28;20036;-79
2022/01/21 09:34:18;;;;;;;12.95;5.25;;;2.10;90.30;;;;;;5002688;28;20037;-80
2022/01/21 09:36:44;;;;;;;15.73;5.22;;;2.10;90.30;;;;;;5005442;28;20144;-80
2022/01/21 09:39:09;;;;;;;11.73;4.30;;;2.10;90.30;;;;;;5006463;28;20021;-80
2022/01/21 09:41:35;;;;;;;13.07;5.00;;;2.10;90.20;;;;;;5030725;28;20044;-81
2022/01/21 09:44:03;;;;;;;13.98;5.00;;;2.10;90.20;;;;;;4977071;28;20036;-80
2022/01/21 09:46:34;;;;;;;11.80;4.55;;;2.20;90.20;;;;;;5016546;28;20033;-81
2022/01/21 09:49:26;;;;;;;10.52;4.25;;;2.20;90.20;;;;;;5051185;28;20037;-81
2022/01/21 09:51:54;;;;;;;12.85;4.57;;;2.20;90.20;;;;;;5027866;28;20041;-81
2022/01/21 09:54:20;;;;;;;10.38;4.03;;;2.30;90.20;;;;;;4987791;28;20029;-81
2022/01/21 09:56:47;;;;;;;9.68;3.67;;;2.30;90.20;;;;;;4998510;28;20029;-81
2022/01/21 09:59:16;;;;;;;12.20;4.43;;;2.40;90.20;;;;;;5007164;28;20041;-80
2022/01/21 10:01:41;;;;;;;9.88;4.05;;;2.40;90.20;;;;;;5029256;28;20033;-81
2022/01/21 10:04:07;;;;;;;9.95;3.63;;;2.40;90.20;;;;;;5026601;28;20388;-81
2022/01/21 10:06:33;;;;;;;10.57;3.88;;;2.50;90.20;;;;;;5004858;28;20051;-81
2022/01/21 10:08:58;;;;;;;9.43;3.65;;;2.50;90.10;;;;;;5010700;28;20560;-81
2022/01/21 10:11:24;;;;;;;10.77;4.00;;;2.50;90.10;;;;;;5032606;28;20032;-81
2022/01/21 10:13:50;;;;;;;13.27;4.30;;;2.60;90.10;;;;;;5033092;28;20094;-81
2022/01/21 10:16:15;;;;;;;8.48;4.10;;;2.60;90.10;;;;;;5002799;28;20060;-81
2022/01/21 10:19:01;;;;;;;12.85;5.03;;;2.60;90.00;;;;;;5031227;28;20112;-81
2022/01/21 10:21:30;;;;;;;17.90;7.80;;;2.60;90.00;;;;;;5034759;28;20116;-81
2022/01/21 10:23:56;;;;;;;16.77;5.85;;;2.70;90.00;;;;;;5028712;28;20522;-82
2022/01/21 10:26:23;;;;;;;14.10;5.68;;;2.70;90.00;;;;;;5024055;28;20108;-83
2022/01/21 10:28:54;;;;;;;15.10;6.45;;;2.70;90.00;;;;;;5030029;28;20129;-84
2022/01/21 10:31:19;;;;;;;9.07;5.07;;;2.80;90.00;;;;;;5011314;28;20352;-84
2022/01/21 10:33:49;;;;;;;15.65;6.15;;;2.80;90.00;;;;;;5002045;28;20048;-82
2022/01/21 10:36:28;;;;;;;16.05;5.78;;;2.80;89.80;;;;;;5024964;28;20040;-84
2022/01/21 10:39:07;;;;;;;12.85;4.97;;;2.80;89.80;;;;;;4999663;28;20020;-83
2022/01/21 10:41:33;;;;;;;9.30;4.22;;;2.90;89.80;;;;;;5022760;28;20052;-83
2022/01/21 10:44:07;;;;;;;7.20;4.63;;;2.90;89.70;;;;;;5012920;28;20128;-84
2022/01/21 10:46:32;;;;;;;11.95;4.60;;;2.90;89.70;;;;;;5026397;28;20049;-85
2022/01/21 10:49:06;;;;;;;9.75;4.88;;;3.00;89.70;;;;;;5003755;28;20095;-85
2022/01/21 10:51:34;;;;;;;9.38;4.57;;;3.00;89.70;;;;;;5019439;28;20147;-83
2022/01/21 10:54:11;;;;;;;8.82;4.55;;;3.10;89.70;;;;;;5016505;28;20259;-84
2022/01/21 10:56:39;;;;;;;12.25;4.38;;;3.10;89.70;;;;;;5026311;28;20047;-86
2022/01/21 10:59:05;;;;;;;9.60;4.38;;;3.20;89.60;;;;;;5002471;28;20129;-87
2022/01/21 11:01:31;;;;;;;11.65;4.05;;;3.30;89.60;;;;;;5017989;28;20056;-84
2022/01/21 11:03:57;;;;;;;13.10;4.60;;;3.30;89.40;;;;;;5039877;28;20052;-85
2022/01/21 11:06:25;;;;;;;8.68;3.95;;;3.40;89.40;;;;;;5027575;28;20028;-84
2022/01/21 11:08:51;;;;;;;7.45;3.78;;;3.40;89.20;;;;;;4992449;28;20044;-84
2022/01/21 11:11:22;;;;;;;12.60;5.47;;;3.50;90.00;;;;;;5012233;28;20026;-83
2022/01/21 11:13:48;;;;;;;13.10;4.85;;;3.50;89.20;;;;;;5046695;28;20044;-85
2022/01/21 11:16:18;;;;;;;12.73;5.07;;;3.60;89.30;;;;;;5036499;28;20032;-84
2022/01/21 11:19:08;;;;;;;205.13;88.95;;;3.70;89.40;;;;;;5043434;28;20041;-84
2022/01/21 11:21:52;;;;;;;34.55;15.82;;;3.90;89.30;;;;;;5018242;28;20025;-85
2022/01/21 11:24:19;;;;;;;88.07;55.42;;;4.00;89.10;;;;;;5023744;28;20071;-84
2022/01/21 11:26:59;;;;;;;18.77;9.95;;;4.10;88.90;;;;;;5010726;28;20044;-83
2022/01/21 11:29:25;;;;;;;13.50;8.15;;;4.20;89.00;;;;;;5033927;28;20036;-82
2022/01/21 11:31:51;;;;;;;9.25;5.70;;;4.20;88.60;;;;;;4990628;28;20033;-83
2022/01/21 11:34:16;;;;;;;11.82;5.50;;;4.30;88.50;;;;;;5008238;28;20044;-86
2022/01/21 11:36:42;;;;;;;14.68;7.30;;;4.40;88.40;;;;;;5017351;28;20056;-83
2022/01/21 11:39:07;;;;;;;9.98;4.53;;;4.40;88.30;;;;;;5013982;28;20037;-83
2022/01/21 11:41:34;;;;;;;11.80;6.07;;;4.50;88.30;;;;;;4987145;28;20487;-84
2022/01/21 11:44:01;;;;;;;8.65;4.32;;;4.50;88.00;;;;;;5011535;28;20039;-83
2022/01/21 11:46:47;;;;;;;30.65;13.00;;;4.60;88.00;;;;;;5037545;28;20051;-86
2022/01/21 11:49:17;;;;;;;14.32;5.43;;;4.60;87.90;;;;;;5015228;28;20037;-84
2022/01/21 11:51:42;;;;;;;15.63;5.30;;;4.60;88.60;;;;;;5006846;28;20037;-84
2022/01/21 11:54:13;;;;;;;11.80;4.93;;;4.70;87.80;;;;;;5020903;28;20461;-84
2022/01/21 11:56:42;;;;;;;8.37;4.40;;;4.70;87.80;;;;;;5025037;28;20076;-85
2022/01/21 11:59:16;;;;;;;11.77;5.15;;;4.80;87.90;;;;;;5035653;28;20789;-84
2022/01/21 12:01:47;;;;;;;10.32;4.43;;;4.90;87.50;;;;;;5026497;28;20036;-85
2022/01/21 12:04:29;;;;;;;6.70;4.45;;;4.90;87.40;;;;;;5024745;28;20041;-84
2022/01/21 12:06:55;;;;;;;;;;;5.00;87.60;;;;;;5042146;28;20044;-84
2022/01/21 12:09:20;;;;;;;12.15;4.05;;;5.10;87.60;;;;;;5058462;28;19909;-83
2022/01/21 12:11:47;;;;;;;9.38;4.88;;;5.20;87.50;;;;;;5001057;28;20119;-84
2022/01/21 12:14:34;;;;;;;8.43;3.38;;;5.30;87.40;;;;;;5022456;28;20041;-84
2022/01/21 12:17:13;;;;;;;12.35;3.83;;;5.50;87.20;;;;;;5025829;28;20057;-84
2022/01/21 12:19:39;;;;;;;7.78;4.07;;;5.60;87.20;;;;;;5034007;28;20052;-83
2022/01/21 12:22:18;;;;;;;9.00;4.05;;;5.80;87.10;;;;;;5042510;28;20037;-83
2022/01/21 12:25:10;;;;;;;13.32;3.92;;;5.90;86.80;;;;;;5048112;28;20070;-82
2022/01/21 12:27:36;;;;;;;8.27;3.38;;;6.00;86.20;;;;;;5047409;28;20037;-82
2022/01/21 12:30:20;;;;;;;11.32;4.82;;;6.10;86.50;;;;;;5024230;28;20120;-81
2022/01/21 12:32:50;;;;;;;8.05;3.55;;;6.20;85.60;;;;;;5031937;28;20032;-83
2022/01/21 12:35:17;;;;;;;12.38;4.55;;;6.30;85.80;;;;;;5000506;28;20087;-81
2022/01/21 12:40:56;;;;;;;6.03;3.35;;;6.30;85.30;;;;;;5034149;28;20056;-81
2022/01/21 12:43:40;;;;;;;9.20;4.43;;;6.40;85.50;;;;;;5011604;28;20025;-83
2022/01/21 12:46:10;;;;;;;9.85;4.03;;;6.40;84.40;;;;;;5033802;28;20048;-82
2022/01/21 12:48:37;;;;;;;7.50;4.53;;;6.30;84.60;;;;;;5033888;28;20449;-81
2022/01/21 12:51:18;;;;;;;7.22;3.90;;;6.30;84.60;;;;;;5027851;28;20045;-83
2022/01/21 12:56:51;;;;;;;13.43;4.53;;;6.20;84.60;;;;;;5035227;28;20044;-82
2022/01/21 12:59:24;;;;;;;11.90;4.93;;;6.20;84.70;;;;;;5030012;28;20029;-82
2022/01/21 13:01:50;;;;;;;11.27;4.30;;;6.20;84.60;;;;;;5009980;28;20040;-82
2022/01/21 13:04:31;;;;;;;9.95;4.82;;;6.10;84.40;;;;;;5011479;28;20037;-83
2022/01/21 13:07:07;;;;;;;17.48;7.32;;;6.00;84.30;;;;;;5050963;28;20033;-83
2022/01/21 13:09:47;;;;;;;11.13;4.60;;;6.00;84.50;;;;;;5011291;28;20037;-83
2022/01/21 13:12:14;;;;;;;16.13;5.85;;;6.00;84.20;;;;;;5033420;28;20045;-82
2022/01/21 13:14:45;;;;;;;9.77;4.82;;;5.90;84.40;;;;;;5013041;28;20029;-83
2022/01/21 13:17:13;;;;;;;14.77;6.38;;;5.90;84.40;;;;;;5020170;28;20059;-83
2022/01/21 13:19:44;;;;;;;10.75;5.68;;;5.90;84.40;;;;;;5009528;28;20196;-85
2022/01/21 13:22:25;;;;;;;12.65;5.60;;;5.90;84.40;;;;;;5022077;28;20400;-81
2022/01/21 13:25:03;;;;;;;10.20;5.00;;;5.80;84.10;;;;;;5018835;28;20029;-80
2022/01/21 13:27:29;;;;;;;17.20;6.75;;;5.80;84.30;;;;;;5034040;28;20045;-83
2022/01/21 13:30:08;;;;;;;11.10;4.35;;;5.80;84.20;;;;;;4991028;28;20030;-81
2022/01/21 13:32:34;;;;;;;19.05;6.25;;;5.80;84.20;;;;;;5012659;28;20038;-80
2022/01/21 13:35:12;;;;;;;7.78;4.13;;;5.80;84.30;;;;;;5003382;28;20032;-80
2022/01/21 13:37:39;;;;;;;19.23;7.90;;;5.80;83.90;;;;;;5017895;28;20138;-81
2022/01/21 13:40:07;;;;;;;14.35;5.95;;;5.70;84.10;;;;;;5006979;28;20178;-80
2022/01/21 13:42:33;;;;;;;8.95;5.00;;;5.70;84.10;;;;;;5028101;28;20083;-80
2022/01/21 13:45:05;;;;;;;20.35;8.63;;;5.70;84.10;;;;;;4990682;28;20516;-83
2022/01/21 13:47:31;;;;;;;10.52;4.07;;;5.60;84.00;;;;;;5018541;28;20025;-81